Terminal Aerodrome Forecast
Issued by NWS

Home | Current Version | Previous Version | Text Only | Print | Product List | Glossary On
Versions: 1 2 3 4 5 6 7 8 9 10 11 12 13 14
633
FTUS45 KGGW 221134
TAFSDY
TAF
KSDY 221134Z 2212/2312 32008KT P6SM BKN070
     FM221800 35011G21KT P6SM BKN070
     FM230200 34007KT P6SM SCT070=

USA.gov is the U.S. government's official web portal to all federal, state and local government web resources and services.